Time;durP1;ratioP1;P1;durP2;ratioP2;P2;SDS_P1;SDS_P2;PMS_P1;PMS_P2;Temp;Humidity;BMP_temperature;BMP_pressure;BME280_temperature;BME280_humidity;BME280_pressure;Samples;Min_cycle;Max_cycle;Signal;HPM_P1;HPM_P2
2022/05/27 00:01:28;;;;;;;22.23;18.27;;;;;;;;;;4836942;29;20049;-73
2022/05/27 00:04:00;;;;;;;25.58;18.98;;;;;;;;;;4836797;29;20054;-73
2022/05/27 00:06:31;;;;;;;21.02;18.13;;;;;;;;;;4836581;29;20053;-73
2022/05/27 00:09:01;;;;;;;24.35;17.88;;;;;;;;;;4837405;29;20052;-73
2022/05/27 00:11:31;;;;;;;20.70;16.27;;;;;;;;;;4837483;29;20446;-74
2022/05/27 00:14:02;;;;;;;26.33;16.92;;;;;;;;;;4836022;29;20058;-73
2022/05/27 00:16:31;;;;;;;29.92;17.58;;;;;;;;;;4836181;29;20058;-73
2022/05/27 00:19:01;;;;;;;21.38;17.60;;;;;;;;;;4836639;29;20050;-74
2022/05/27 00:21:31;;;;;;;22.20;18.52;;;;;;;;;;4836459;29;20062;-73
2022/05/27 00:24:01;;;;;;;23.83;17.98;;;;;;;;;;4836783;29;20060;-73
2022/05/27 00:26:31;;;;;;;22.95;18.98;;;;;;;;;;4836686;29;20057;-73
2022/05/27 00:29:01;;;;;;;24.42;19.70;;;;;;;;;;4836486;29;20054;-73
2022/05/27 00:31:32;;;;;;;22.15;18.92;;;;;;;;;;4836671;29;20426;-73
2022/05/27 00:34:02;;;;;;;24.15;19.23;;;;;;;;;;4836971;29;20403;-73
2022/05/27 00:36:33;;;;;;;24.95;20.27;;;;;;;;;;4836351;29;20746;-73
2022/05/27 00:39:03;;;;;;;28.10;19.58;;;;;;;;;;4835532;29;20080;-74
2022/05/27 00:41:33;;;;;;;27.40;19.13;;;;;;;;;;4836150;29;20042;-74
2022/05/27 00:44:04;;;;;;;32.22;20.48;;;;;;;;;;4836169;29;20050;-72
2022/05/27 00:46:35;;;;;;;30.20;22.02;;;;;;;;;;4836328;29;20074;-74
2022/05/27 00:49:12;;;;;;;36.75;21.63;;;;;;;;;;4835826;29;20042;-73
2022/05/27 00:51:51;;;;;;;25.92;20.73;;;;;;;;;;4835732;29;20046;-73
2022/05/27 00:54:25;;;;;;;25.30;19.02;;;;;;;;;;4836388;29;20053;-73
2022/05/27 00:57:00;;;;;;;31.10;19.38;;;;;;;;;;4836338;29;20050;-73
2022/05/27 00:59:46;;;;;;;26.45;20.38;;;;;;;;;;4836153;29;20057;-76
2022/05/27 01:02:17;;;;;;;25.30;20.40;;;;;;;;;;4836609;29;20060;-73
2022/05/27 01:04:49;;;;;;;34.65;20.05;;;;;;;;;;4835450;29;20069;-72
2022/05/27 01:07:19;;;;;;;22.20;18.55;;;;;;;;;;4834463;29;20049;-73
2022/05/27 01:09:50;;;;;;;20.45;17.05;;;;;;;;;;4836059;29;20455;-75
2022/05/27 01:12:51;;;;;;;25.05;16.92;;;;;;;;;;4836383;29;20042;-74
2022/05/27 01:15:24;;;;;;;21.33;16.88;;;;;;;;;;4835821;29;20581;-74
2022/05/27 01:18:12;;;;;;;21.58;14.10;;;;;;;;;;4836268;29;20050;-73
2022/05/27 01:21:01;;;;;;;23.60;12.63;;;;;;;;;;4836470;29;20066;-73
2022/05/27 01:23:57;;;;;;;21.20;12.85;;;;;;;;;;4835794;29;20058;-73
2022/05/27 01:26:45;;;;;;;18.13;14.38;;;;;;;;;;4799664;29;20073;-73
2022/05/27 01:29:35;;;;;;;18.75;15.55;;;;;;;;;;4834194;29;20537;-73
2022/05/27 01:32:11;;;;;;;20.42;15.77;;;;;;;;;;4835286;29;20050;-73
2022/05/27 01:34:58;;;;;;;21.52;16.75;;;;;;;;;;4818007;29;20065;-73
2022/05/27 01:37:28;;;;;;;20.35;15.80;;;;;;;;;;4836131;29;20061;-73
2022/05/27 01:40:03;;;;;;;26.08;16.95;;;;;;;;;;4835722;29;20062;-73
2022/05/27 01:43:02;;;;;;;24.33;16.02;;;;;;;;;;4820389;29;20045;-73
2022/05/27 01:46:07;;;;;;;37.63;17.50;;;;;;;;;;4835572;29;20050;-72
2022/05/27 01:48:42;;;;;;;22.25;16.38;;;;;;;;;;4834051;29;20547;-73
2022/05/27 01:51:32;;;;;;;17.00;14.07;;;;;;;;;;4835213;29;20080;-73
2022/05/27 01:54:30;;;;;;;27.17;15.57;;;;;;;;;;4835957;29;20062;-76
2022/05/27 01:57:24;;;;;;;18.92;14.88;;;;;;;;;;4835296;29;20402;-73
2022/05/27 02:00:10;;;;;;;21.20;17.88;;;;;;;;;;4826224;29;20061;-73
2022/05/27 02:03:20;;;;;;;17.80;14.52;;;;;;;;;;4835883;29;20057;-73
2022/05/27 02:06:17;;;;;;;22.23;15.15;;;;;;;;;;4829453;29;20066;-73
2022/05/27 02:08:54;;;;;;;18.95;15.32;;;;;;;;;;4835733;29;20050;-72
2022/05/27 02:11:25;;;;;;;21.85;14.35;;;;;;;;;;4818479;29;20069;-72
2022/05/27 02:14:27;;;;;;;25.55;15.45;;;;;;;;;;4834938;29;20069;-73
2022/05/27 02:17:02;;;;;;;25.10;14.95;;;;;;;;;;4823459;29;20074;-73
2022/05/27 02:20:00;;;;;;;20.92;15.95;;;;;;;;;;4818341;29;20061;-73
2022/05/27 02:22:35;;;;;;;20.77;14.75;;;;;;;;;;4835567;29;20064;-73
2022/05/27 02:25:11;;;;;;;18.30;15.32;;;;;;;;;;4835136;29;20088;-71
2022/05/27 02:28:09;;;;;;;26.52;16.92;;;;;;;;;;4835823;29;20053;-73
2022/05/27 02:30:55;;;;;;;21.95;16.70;;;;;;;;;;4835886;29;20056;-73
2022/05/27 02:36:49;;;;;;;21.98;16.60;;;;;;;;;;4835091;29;20077;-73
2022/05/27 02:39:20;;;;;;;24.67;16.45;;;;;;;;;;4835680;29;20057;-73
2022/05/27 02:42:10;;;;;;;30.80;18.45;;;;;;;;;;4834149;29;20511;-73
2022/05/27 02:44:50;;;;;;;19.23;17.23;;;;;;;;;;4835118;29;20061;-73
2022/05/27 02:47:20;;;;;;;25.55;16.88;;;;;;;;;;4835603;29;20061;-73
2022/05/27 02:50:10;;;;;;;20.77;15.63;;;;;;;;;;4835172;29;20046;-71
2022/05/27 02:52:55;;;;;;;21.30;15.48;;;;;;;;;;4834983;29;20542;-73
2022/05/27 02:55:45;;;;;;;16.58;13.73;;;;;;;;;;4835826;29;20510;-73
2022/05/27 02:58:16;;;;;;;17.40;13.15;;;;;;;;;;4838044;29;20046;-73
2022/05/27 03:00:46;;;;;;;;;;;;;;;;;;4838828;29;20515;-73
2022/05/27 03:03:16;;;;;;;13.63;11.05;;;;;;;;;;4838397;29;20304;-72
2022/05/27 03:05:57;;;;;;;15.65;10.85;;;;;;;;;;4837961;29;20057;-73
2022/05/27 03:08:40;;;;;;;12.85;11.55;;;;;;;;;;4837841;29;20519;-73
2022/05/27 03:11:30;;;;;;;14.80;11.10;;;;;;;;;;4838741;29;20511;-74
2022/05/27 03:14:08;;;;;;;14.75;10.68;;;;;;;;;;4838678;29;20050;-73
2022/05/27 03:17:09;;;;;;;17.15;11.90;;;;;;;;;;4838329;29;20053;-73
2022/05/27 03:20:01;;;;;;;15.23;11.18;;;;;;;;;;4838205;29;20502;-73
2022/05/27 03:23:13;;;;;;;18.02;11.07;;;;;;;;;;4838047;29;20050;-73
2022/05/27 03:25:59;;;;;;;12.15;9.85;;;;;;;;;;4837793;29;20470;-73
2022/05/27 03:29:08;;;;;;;12.32;9.95;;;;;;;;;;4821310;29;20061;-73
2022/05/27 03:31:52;;;;;;;16.92;10.25;;;;;;;;;;4837434;29;20511;-73
2022/05/27 03:34:40;;;;;;;14.48;9.38;;;;;;;;;;4837917;29;20053;-73
2022/05/27 03:37:17;;;;;;;12.70;9.85;;;;;;;;;;4838406;29;20046;-73
2022/05/27 03:40:05;;;;;;;12.00;9.45;;;;;;;;;;4821237;29;20054;-73
2022/05/27 03:42:37;;;;;;;18.92;9.73;;;;;;;;;;4837756;29;20050;-73
2022/05/27 03:45:19;;;;;;;13.93;9.57;;;;;;;;;;4837471;29;20058;-73
2022/05/27 03:47:50;;;;;;;13.45;9.68;;;;;;;;;;4837386;29;20518;-73
2022/05/27 03:50:24;;;;;;;11.55;9.38;;;;;;;;;;4837558;29;20415;-73
2022/05/27 03:52:56;;;;;;;15.88;9.75;;;;;;;;;;4837665;29;20053;-73
2022/05/27 03:55:26;;;;;;;;;;;;;;;;;;4837655;29;20418;-73
2022/05/27 03:57:56;;;;;;;11.45;9.13;;;;;;;;;;4837740;29;19928;-73
2022/05/27 04:00:26;;;;;;;15.30;9.30;;;;;;;;;;4837300;29;20522;-73
2022/05/27 04:02:55;;;;;;;14.32;10.23;;;;;;;;;;4837549;29;20058;-73
2022/05/27 04:05:26;;;;;;;13.52;11.65;;;;;;;;;;4821907;29;20064;-73
2022/05/27 04:07:56;;;;;;;22.27;12.50;;;;;;;;;;4836977;29;20062;-73
2022/05/27 04:10:26;;;;;;;19.60;12.90;;;;;;;;;;4836742;29;20058;-73
2022/05/27 04:12:56;;;;;;;14.20;12.70;;;;;;;;;;4837216;29;20049;-73
2022/05/27 04:15:26;;;;;;;19.42;12.48;;;;;;;;;;4836926;29;20054;-73
2022/05/27 04:17:55;;;;;;;16.65;12.73;;;;;;;;;;4836977;29;20060;-73
2022/05/27 04:20:26;;;;;;;14.10;12.55;;;;;;;;;;4837241;29;20046;-73
2022/05/27 04:22:56;;;;;;;17.63;12.02;;;;;;;;;;4837120;29;20518;-73
2022/05/27 04:25:26;;;;;;;21.23;12.05;;;;;;;;;;4837351;29;20774;-73
2022/05/27 04:27:55;;;;;;;21.25;13.73;;;;;;;;;;4836987;29;20061;-73
2022/05/27 04:30:26;;;;;;;20.02;14.30;;;;;;;;;;4836748;29;20692;-73
2022/05/27 04:32:55;;;;;;;16.40;13.23;;;;;;;;;;4836684;29;20058;-73
2022/05/27 04:35:25;;;;;;;16.33;12.07;;;;;;;;;;4819301;29;20058;-73
2022/05/27 04:37:55;;;;;;;17.23;13.27;;;;;;;;;;4837068;29;20061;-73
2022/05/27 04:40:25;;;;;;;15.13;13.02;;;;;;;;;;4835620;29;20884;-73
2022/05/27 04:42:55;;;;;;;16.83;12.27;;;;;;;;;;4836843;29;20053;-73
2022/05/27 04:45:25;;;;;;;18.23;13.48;;;;;;;;;;4836782;29;20427;-74
2022/05/27 04:47:56;;;;;;;21.33;13.60;;;;;;;;;;4836324;29;20447;-73
2022/05/27 04:50:27;;;;;;;18.42;13.63;;;;;;;;;;4837016;29;20061;-73
2022/05/27 04:52:56;;;;;;;22.90;14.90;;;;;;;;;;4836288;29;20080;-73
2022/05/27 04:55:30;;;;;;;23.60;14.27;;;;;;;;;;4836838;29;20330;-73
2022/05/27 04:58:01;;;;;;;23.63;15.30;;;;;;;;;;4836735;29;20058;-73
2022/05/27 05:00:34;;;;;;;26.40;16.45;;;;;;;;;;4835475;29;20054;-73
2022/05/27 05:03:05;;;;;;;18.98;16.02;;;;;;;;;;4836632;29;20061;-73
2022/05/27 05:05:36;;;;;;;29.23;18.42;;;;;;;;;;4836312;29;20050;-73
2022/05/27 05:08:14;;;;;;;27.08;20.00;;;;;;;;;;4819295;29;20511;-73
2022/05/27 05:10:44;;;;;;;35.83;23.10;;;;;;;;;;4836016;29;20058;-73
2022/05/27 05:13:15;;;;;;;45.65;26.02;;;;;;;;;;4836072;29;20053;-73
2022/05/27 05:15:45;;;;;;;73.82;26.95;;;;;;;;;;4835881;29;20042;-73
2022/05/27 05:18:15;;;;;;;39.85;23.27;;;;;;;;;;4835263;29;20414;-73
2022/05/27 05:20:45;;;;;;;72.28;25.65;;;;;;;;;;4836545;29;20426;-73
2022/05/27 05:23:14;;;;;;;34.05;23.40;;;;;;;;;;4819881;29;20058;-73
2022/05/27 05:25:44;;;;;;;38.38;23.10;;;;;;;;;;4836646;29;20054;-73
2022/05/27 05:28:14;;;;;;;37.47;23.00;;;;;;;;;;4836093;29;20050;-73
2022/05/27 05:30:44;;;;;;;33.28;21.45;;;;;;;;;;4836077;29;20084;-73
2022/05/27 05:33:13;;;;;;;31.88;22.42;;;;;;;;;;4835504;29;20062;-73
2022/05/27 05:35:43;;;;;;;47.72;23.60;;;;;;;;;;4835603;29;20053;-73
2022/05/27 05:38:13;;;;;;;37.95;22.95;;;;;;;;;;4836403;29;20062;-73
2022/05/27 05:40:43;;;;;;;39.88;22.20;;;;;;;;;;4835874;29;20076;-73
2022/05/27 05:43:14;;;;;;;39.30;22.08;;;;;;;;;;4835709;29;20498;-73
2022/05/27 05:45:44;;;;;;;62.50;22.95;;;;;;;;;;4835757;29;20533;-73
2022/05/27 05:48:14;;;;;;;42.25;22.40;;;;;;;;;;4819273;29;20072;-73
2022/05/27 05:50:44;;;;;;;86.43;24.50;;;;;;;;;;4835557;29;20058;-73
2022/05/27 05:53:14;;;;;;;163.07;25.35;;;;;;;;;;4819161;29;20058;-73
2022/05/27 05:55:44;;;;;;;53.22;22.58;;;;;;;;;;4836168;29;20506;-73
2022/05/27 05:58:14;;;;;;;40.35;21.88;;;;;;;;;;4835927;29;20058;-73
2022/05/27 06:00:44;;;;;;;36.88;20.05;;;;;;;;;;4835335;29;20498;-73
2022/05/27 06:03:14;;;;;;;28.67;16.38;;;;;;;;;;4835788;29;20062;-73
2022/05/27 06:05:44;;;;;;;59.60;16.88;;;;;;;;;;4836125;29;20053;-73
2022/05/27 06:08:18;;;;;;;78.47;17.45;;;;;;;;;;4834933;29;20426;-73
2022/05/27 06:10:49;;;;;;;186.00;20.17;;;;;;;;;;4835846;29;20053;-73
2022/05/27 06:13:19;;;;;;;373.60;22.27;;;;;;;;;;4819371;29;20058;-73
2022/05/27 06:15:50;;;;;;;265.20;20.55;;;;;;;;;;4835578;29;20054;-73
2022/05/27 06:18:20;;;;;;;205.55;21.83;;;;;;;;;;4835683;29;20050;-73
2022/05/27 06:20:50;;;;;;;183.52;18.17;;;;;;;;;;4835538;29;20089;-73
2022/05/27 06:23:21;;;;;;;423.05;28.70;;;;;;;;;;4835177;29;20057;-73
2022/05/27 06:26:04;;;;;;;39.63;15.75;;;;;;;;;;4835378;29;20066;-73
2022/05/27 06:34:25;;;;;;;205.50;19.15;;;;;;;;;;4839253;29;20058;-73
2022/05/27 06:37:04;;;;;;;43.35;16.48;;;;;;;;;;4839664;29;20418;-73
2022/05/27 06:39:35;;;;;;;111.85;15.07;;;;;;;;;;4838622;29;20060;-73
2022/05/27 06:42:08;;;;;;;102.38;16.95;;;;;;;;;;4838990;29;20046;-73
2022/05/27 06:44:58;;;;;;;92.78;14.57;;;;;;;;;;4839041;29;20050;-73
2022/05/27 06:47:30;;;;;;;162.10;18.25;;;;;;;;;;4838761;29;20050;-73
2022/05/27 06:50:00;;;;;;;;;;;;;;;;;;4839203;29;20557;-73
2022/05/27 06:52:30;;;;;;;221.80;17.27;;;;;;;;;;4821451;29;19928;-73
2022/05/27 06:55:00;;;;;;;326.90;21.90;;;;;;;;;;4837700;29;20423;-73
2022/05/27 06:57:30;;;;;;;281.40;20.30;;;;;;;;;;4838364;29;20046;-73
2022/05/27 07:00:01;;;;;;;355.98;23.33;;;;;;;;;;4838999;29;20081;-73
2022/05/27 07:02:30;;;;;;;171.48;18.13;;;;;;;;;;4839083;29;20061;-73
2022/05/27 07:05:01;;;;;;;229.00;18.73;;;;;;;;;;4822276;29;20053;-73
2022/05/27 07:07:32;;;;;;;285.73;19.98;;;;;;;;;;4838173;29;20057;-73
2022/05/27 07:10:02;;;;;;;140.50;17.17;;;;;;;;;;4838533;29;20058;-73
2022/05/27 07:12:32;;;;;;;157.45;19.23;;;;;;;;;;4837331;29;20627;-73
2022/05/27 07:15:01;;;;;;;126.10;17.90;;;;;;;;;;4838288;29;20058;-73
2022/05/27 07:17:32;;;;;;;147.52;16.83;;;;;;;;;;4838131;29;20517;-74
2022/05/27 07:20:03;;;;;;;100.57;15.32;;;;;;;;;;4821706;29;20589;-73
2022/05/27 07:22:33;;;;;;;;;;;;;;;;;;4838669;29;20061;-73
2022/05/27 07:25:04;;;;;;;204.00;18.42;;;;;;;;;;4838127;29;19928;-73
2022/05/27 07:27:34;;;;;;;22.95;14.88;;;;;;;;;;4838200;29;20050;-73
2022/05/27 07:30:04;;;;;;;29.13;14.23;;;;;;;;;;4838288;29;20053;-73
2022/05/27 07:32:36;;;;;;;59.25;16.00;;;;;;;;;;4837259;29;20084;-73
2022/05/27 07:35:08;;;;;;;69.53;14.93;;;;;;;;;;4838473;29;20049;-74
2022/05/27 07:37:38;;;;;;;15.95;14.30;;;;;;;;;;4837958;29;20394;-73
2022/05/27 07:40:10;;;;;;;15.63;13.45;;;;;;;;;;4837786;29;20141;-74
2022/05/27 07:42:40;;;;;;;17.75;13.55;;;;;;;;;;4837083;29;20058;-73
2022/05/27 07:45:17;;;;;;;17.33;13.73;;;;;;;;;;4837484;29;20049;-74
2022/05/27 07:47:47;;;;;;;17.08;14.20;;;;;;;;;;4837604;29;20057;-73
2022/05/27 07:50:17;;;;;;;17.30;13.85;;;;;;;;;;4837555;29;20061;-73
2022/05/27 07:52:47;;;;;;;17.10;13.77;;;;;;;;;;4838106;29;20077;-73
2022/05/27 07:55:17;;;;;;;30.50;14.18;;;;;;;;;;4838440;29;20065;-73
2022/05/27 07:57:48;;;;;;;21.55;14.88;;;;;;;;;;4837843;29;20054;-73
2022/05/27 08:00:25;;;;;;;18.17;13.80;;;;;;;;;;4837090;29;20069;-73
2022/05/27 08:02:56;;;;;;;17.40;14.05;;;;;;;;;;4837749;29;20062;-73
2022/05/27 08:05:28;;;;;;;18.00;14.50;;;;;;;;;;4821056;29;20050;-73
2022/05/27 08:08:01;;;;;;;28.20;16.02;;;;;;;;;;4837361;29;20054;-73
2022/05/27 08:10:34;;;;;;;19.10;15.05;;;;;;;;;;4837545;29;20432;-73
2022/05/27 08:13:05;;;;;;;15.93;14.23;;;;;;;;;;4820475;29;20061;-73
2022/05/27 08:15:36;;;;;;;16.77;12.35;;;;;;;;;;4837248;29;20046;-73
2022/05/27 08:18:06;;;;;;;15.68;13.98;;;;;;;;;;4837243;29;20065;-72
2022/05/27 08:20:39;;;;;;;20.35;13.18;;;;;;;;;;4837818;29;20053;-72
2022/05/27 08:23:09;;;;;;;17.83;12.70;;;;;;;;;;4836854;29;20057;-73
2022/05/27 08:25:39;;;;;;;20.65;13.02;;;;;;;;;;4837725;29;20057;-73
2022/05/27 08:28:09;;;;;;;13.32;11.40;;;;;;;;;;4837560;29;20049;-73
2022/05/27 08:30:40;;;;;;;26.33;14.15;;;;;;;;;;4837398;29;20058;-73
2022/05/27 08:33:10;;;;;;;14.70;11.25;;;;;;;;;;4836367;29;20057;-73
2022/05/27 08:38:34;;;;;;;10.40;9.45;;;;;;;;;;4836946;29;20286;-73
2022/05/27 08:41:07;;;;;;;13.10;9.48;;;;;;;;;;4836507;29;20049;-73
2022/05/27 08:44:13;;;;;;;13.15;9.77;;;;;;;;;;4836850;29;20050;-73
2022/05/27 08:47:02;;;;;;;11.70;8.60;;;;;;;;;;4816125;29;20074;-73
2022/05/27 08:49:38;;;;;;;13.25;9.77;;;;;;;;;;4835778;29;20414;-73
2022/05/27 08:52:39;;;;;;;11.77;10.02;;;;;;;;;;4836088;29;20050;-73
2022/05/27 09:02:03;;;;;;;13.35;10.63;;;;;;;;;;4779624;30;20390;-73
2022/05/27 09:04:50;;;;;;;16.05;11.85;;;;;;;;;;4779965;30;20062;-73
2022/05/27 09:07:31;;;;;;;12.32;11.07;;;;;;;;;;4826753;29;20065;-73
2022/05/27 09:10:07;;;;;;;14.53;10.40;;;;;;;;;;4836097;29;20050;-73
2022/05/27 09:13:04;;;;;;;13.20;11.73;;;;;;;;;;4836056;29;20660;-73
2022/05/27 09:16:12;;;;;;;13.82;10.60;;;;;;;;;;4836163;29;20052;-73
2022/05/27 09:19:00;;;;;;;11.90;10.77;;;;;;;;;;4835870;29;20073;-73
2022/05/27 09:21:46;;;;;;;13.65;11.52;;;;;;;;;;4819432;29;20064;-73
2022/05/27 09:24:50;;;;;;;15.73;12.35;;;;;;;;;;4835907;29;20061;-73
2022/05/27 09:27:26;;;;;;;17.17;13.35;;;;;;;;;;4836332;29;20049;-73
2022/05/27 09:30:02;;;;;;;17.83;15.13;;;;;;;;;;4836007;29;20045;-73
2022/05/27 09:32:54;;;;;;;22.88;15.65;;;;;;;;;;4836167;29;20054;-73
2022/05/27 09:35:32;;;;;;;22.08;16.42;;;;;;;;;;4835438;29;20064;-75
2022/05/27 09:38:24;;;;;;;29.92;16.60;;;;;;;;;;4835114;29;20444;-72
2022/05/27 09:41:23;;;;;;;47.20;18.42;;;;;;;;;;4835882;29;20072;-73
2022/05/27 09:44:26;;;;;;;33.65;15.27;;;;;;;;;;4835833;29;20069;-73
2022/05/27 09:46:57;;;;;;;24.80;15.25;;;;;;;;;;4836335;29;20053;-74
2022/05/27 09:49:27;;;;;;;32.33;17.77;;;;;;;;;;4835984;29;20057;-73
2022/05/27 09:51:58;;;;;;;37.30;19.02;;;;;;;;;;4818218;29;20050;-75
2022/05/27 09:54:41;;;;;;;39.20;21.98;;;;;;;;;;4835416;29;20057;-74
2022/05/27 09:57:13;;;;;;;38.10;21.40;;;;;;;;;;4835572;29;20053;-74
2022/05/27 09:59:47;;;;;;;;;;;;;;;;;;4836464;29;20065;-74
2022/05/27 10:02:22;;;;;;;26.92;18.25;;;;;;;;;;4835737;29;19928;-75
2022/05/27 10:05:05;;;;;;;39.55;20.80;;;;;;;;;;4837724;29;20050;-74
2022/05/27 10:07:38;;;;;;;32.80;21.08;;;;;;;;;;4839547;29;20054;-73
2022/05/27 10:10:35;;;;;;;31.90;21.33;;;;;;;;;;4839448;29;20510;-74
2022/05/27 10:13:30;;;;;;;42.90;23.38;;;;;;;;;;4840005;29;20050;-74
2022/05/27 10:16:11;;;;;;;33.55;20.80;;;;;;;;;;4822174;29;20057;-74
2022/05/27 10:18:44;;;;;;;30.02;17.80;;;;;;;;;;4839173;29;20057;-73
2022/05/27 10:21:18;;;;;;;36.05;19.90;;;;;;;;;;4839170;29;20061;-74
2022/05/27 10:23:54;;;;;;;28.05;17.92;;;;;;;;;;4839038;29;20053;-74
2022/05/27 10:26:34;;;;;;;31.83;17.95;;;;;;;;;;4839026;29;20053;-80
2022/05/27 10:29:10;;;;;;;26.75;17.15;;;;;;;;;;4820935;29;20545;-74
2022/05/27 10:31:53;;;;;;;38.72;19.65;;;;;;;;;;4838418;29;20053;-74
2022/05/27 10:34:49;;;;;;;37.75;18.95;;;;;;;;;;4839101;29;20833;-75
2022/05/27 10:37:46;;;;;;;34.40;18.55;;;;;;;;;;4837259;29;20069;-74
2022/05/27 10:40:28;;;;;;;35.25;18.17;;;;;;;;;;4840551;29;20399;-74
2022/05/27 10:43:21;;;;;;;43.88;17.83;;;;;;;;;;4838435;29;20057;-74
2022/05/27 10:45:54;;;;;;;37.38;18.33;;;;;;;;;;4813584;29;20069;-76
2022/05/27 10:48:43;;;;;;;33.10;16.80;;;;;;;;;;4838488;29;20050;-74
2022/05/27 10:51:38;;;;;;;27.17;18.30;;;;;;;;;;4838333;29;20061;-74
2022/05/27 10:54:45;;;;;;;35.60;18.23;;;;;;;;;;4838441;29;20077;-75
2022/05/27 11:03:19;;;;;;;35.08;17.77;;;;;;;;;;4820175;29;20055;-74
2022/05/27 11:06:09;;;;;;;35.08;19.02;;;;;;;;;;4820601;29;20077;-74
2022/05/27 11:08:57;;;;;;;31.75;17.23;;;;;;;;;;4820256;29;20057;-73
2022/05/27 11:11:50;;;;;;;33.13;19.02;;;;;;;;;;4820484;29;20050;-73
2022/05/27 11:18:07;;;;;;;44.10;17.50;;;;;;;;;;4818800;29;20058;-72
2022/05/27 11:20:58;;;;;;;55.60;17.85;;;;;;;;;;4819716;29;20058;-74
2022/05/27 11:23:50;;;;;;;40.40;16.50;;;;;;;;;;4819514;29;20058;-77
2022/05/27 11:26:41;;;;;;;23.48;16.27;;;;;;;;;;4803621;29;20046;-73
2022/05/27 11:29:42;;;;;;;26.98;15.10;;;;;;;;;;4802388;29;20058;-74
2022/05/27 11:32:38;;;;;;;24.90;15.07;;;;;;;;;;4819452;29;20054;-75
2022/05/27 11:35:36;;;;;;;38.05;16.67;;;;;;;;;;4819571;29;20065;-73
2022/05/27 11:38:47;;;;;;;33.20;16.55;;;;;;;;;;4819120;29;20046;-72
2022/05/27 11:41:29;;;;;;;42.80;16.97;;;;;;;;;;4811333;29;20408;-73
2022/05/27 11:44:07;;;;;;;31.73;14.77;;;;;;;;;;4819546;29;20045;-73
2022/05/27 11:47:07;;;;;;;26.92;16.88;;;;;;;;;;4818874;29;20096;-72
2022/05/27 11:50:04;;;;;;;25.80;16.48;;;;;;;;;;4819012;29;20065;-74
2022/05/27 11:52:40;;;;;;;31.35;16.15;;;;;;;;;;4819088;29;20065;-74
2022/05/27 11:55:21;;;;;;;31.63;15.93;;;;;;;;;;4802107;29;20055;-73
2022/05/27 11:58:17;;;;;;;33.42;16.00;;;;;;;;;;4819916;29;20084;-74
2022/05/27 12:01:14;;;;;;;23.02;14.88;;;;;;;;;;4819395;29;20062;-73
2022/05/27 12:04:00;;;;;;;34.17;15.82;;;;;;;;;;4803358;29;20062;-76
2022/05/27 12:06:52;;;;;;;22.08;13.98;;;;;;;;;;4819156;29;20058;-73
2022/05/27 12:09:24;;;;;;;;;;;;;;;;;;4802816;29;20093;-74
2022/05/27 12:12:02;;;;;;;21.33;14.05;;;;;;;;;;4819631;29;19924;-73
2022/05/27 12:14:38;;;;;;;24.85;15.85;;;;;;;;;;4818420;29;20050;-74
2022/05/27 12:17:20;;;;;;;24.35;14.18;;;;;;;;;;4819123;29;20061;-74
2022/05/27 12:20:01;;;;;;;24.73;13.07;;;;;;;;;;4818741;29;20057;-74
2022/05/27 12:22:34;;;;;;;23.05;13.40;;;;;;;;;;4819099;29;20143;-72
2022/05/27 12:25:17;;;;;;;16.85;12.70;;;;;;;;;;4818800;29;20062;-74
2022/05/27 12:27:48;;;;;;;19.23;12.13;;;;;;;;;;4818750;29;20057;-78
2022/05/27 12:30:39;;;;;;;17.90;13.05;;;;;;;;;;4818608;29;20055;-74
2022/05/27 12:33:18;;;;;;;16.27;12.97;;;;;;;;;;4818370;29;20503;-74
2022/05/27 12:35:54;;;;;;;20.67;12.45;;;;;;;;;;4818493;29;20510;-74
2022/05/27 12:38:31;;;;;;;19.10;12.55;;;;;;;;;;4818265;29;20118;-75
2022/05/27 12:41:07;;;;;;;16.73;13.02;;;;;;;;;;4786474;29;20066;-73
2022/05/27 12:43:58;;;;;;;17.60;13.95;;;;;;;;;;4818821;29;20049;-74
2022/05/27 12:46:44;;;;;;;24.92;15.48;;;;;;;;;;4818899;29;20137;-73
2022/05/27 12:49:20;;;;;;;25.40;14.63;;;;;;;;;;4818436;29;20051;-74
2022/05/27 12:51:51;;;;;;;17.42;13.15;;;;;;;;;;4819264;29;20415;-72
2022/05/27 12:54:42;;;;;;;20.57;14.20;;;;;;;;;;4818320;29;20054;-73
2022/05/27 13:03:38;;;;;;;18.52;13.52;;;;;;;;;;4818298;29;20057;-74
2022/05/27 13:06:17;;;;;;;17.48;13.95;;;;;;;;;;4818264;29;20077;-75
2022/05/27 13:08:53;;;;;;;17.52;13.90;;;;;;;;;;4818557;29;20082;-73
2022/05/27 13:11:34;;;;;;;15.23;13.07;;;;;;;;;;4818667;29;20054;-73
2022/05/27 13:14:05;;;;;;;20.52;14.02;;;;;;;;;;4817614;29;20058;-73
2022/05/27 13:17:08;;;;;;;18.52;13.48;;;;;;;;;;4818398;29;20063;-73
2022/05/27 13:19:59;;;;;;;18.38;13.20;;;;;;;;;;4818453;29;20058;-73
2022/05/27 13:22:58;;;;;;;15.05;12.43;;;;;;;;;;4817789;29;20521;-73
2022/05/27 13:25:44;;;;;;;15.60;11.85;;;;;;;;;;4817501;29;20054;-74
2022/05/27 13:28:32;;;;;;;19.58;12.75;;;;;;;;;;4818136;29;20065;-74
2022/05/27 13:31:02;;;;;;;21.63;12.88;;;;;;;;;;4818011;29;20113;-73
2022/05/27 13:33:47;;;;;;;16.23;12.52;;;;;;;;;;4818104;29;20054;-73
2022/05/27 13:36:24;;;;;;;11.93;10.75;;;;;;;;;;4818472;29;20054;-73
2022/05/27 13:39:01;;;;;;;15.00;11.75;;;;;;;;;;4817117;29;20046;-78
2022/05/27 13:41:41;;;;;;;11.68;10.15;;;;;;;;;;4817080;29;20062;-74
2022/05/27 13:44:14;;;;;;;10.88;9.75;;;;;;;;;;4818306;29;20054;-73
2022/05/27 13:46:47;;;;;;;11.55;9.00;;;;;;;;;;4817891;29;20054;-74
2022/05/27 13:49:26;;;;;;;10.65;9.50;;;;;;;;;;4817736;29;20050;-73
2022/05/27 13:51:57;;;;;;;19.25;9.68;;;;;;;;;;4799867;29;20065;-74
2022/05/27 13:54:40;;;;;;;10.55;8.95;;;;;;;;;;4817944;29;20050;-73
2022/05/27 13:57:20;;;;;;;14.15;9.57;;;;;;;;;;4817709;29;20410;-73
2022/05/27 13:59:53;;;;;;;10.35;9.23;;;;;;;;;;4817202;29;20149;-72
2022/05/27 14:02:47;;;;;;;10.38;9.35;;;;;;;;;;4817740;29;20065;-72
2022/05/27 14:05:27;;;;;;;10.75;9.38;;;;;;;;;;4817275;29;20490;-73
2022/05/27 14:08:00;;;;;;;11.50;9.57;;;;;;;;;;4801948;29;20062;-75
2022/05/27 14:10:42;;;;;;;11.68;10.48;;;;;;;;;;4817705;29;20053;-73
2022/05/27 14:13:28;;;;;;;11.52;10.32;;;;;;;;;;4800562;29;20063;-75
2022/05/27 14:15:59;;;;;;;10.80;9.73;;;;;;;;;;4816830;29;20061;-74
2022/05/27 14:18:32;;;;;;;13.43;10.10;;;;;;;;;;4817471;29;20061;-73
2022/05/27 14:24:00;;;;;;;10.88;9.70;;;;;;;;;;4817235;29;20546;-74
2022/05/27 14:26:37;;;;;;;12.02;10.73;;;;;;;;;;4816732;29;20050;-73
2022/05/27 14:29:13;;;;;;;12.43;10.50;;;;;;;;;;4816839;29;20066;-73
2022/05/27 14:31:43;;;;;;;19.05;10.70;;;;;;;;;;4816806;29;20058;-75
2022/05/27 14:34:19;;;;;;;10.55;9.55;;;;;;;;;;4817899;29;20553;-74
2022/05/27 14:37:12;;;;;;;12.25;10.90;;;;;;;;;;4817096;29;20060;-74
2022/05/27 14:39:44;;;;;;;13.85;11.48;;;;;;;;;;4817320;29;20050;-73
2022/05/27 14:42:15;;;;;;;12.30;10.43;;;;;;;;;;4815192;29;20093;-74
2022/05/27 14:44:49;;;;;;;12.27;11.07;;;;;;;;;;4813392;29;20058;-73
2022/05/27 14:47:33;;;;;;;12.55;10.75;;;;;;;;;;4812848;29;20050;-78
2022/05/27 14:50:12;;;;;;;11.73;10.63;;;;;;;;;;4815777;29;20053;-74
2022/05/27 14:52:52;;;;;;;14.23;12.93;;;;;;;;;;4820302;29;20042;-75
2022/05/27 14:55:26;;;;;;;15.85;12.05;;;;;;;;;;4819790;29;20058;-73
2022/05/27 14:57:59;;;;;;;13.20;10.52;;;;;;;;;;4820273;29;20059;-74
2022/05/27 15:00:35;;;;;;;13.50;10.95;;;;;;;;;;4820584;29;20059;-74
2022/05/27 15:03:32;;;;;;;14.35;10.75;;;;;;;;;;4819729;29;20058;-77
2022/05/27 15:06:15;;;;;;;11.63;10.48;;;;;;;;;;4820087;29;20131;-73
2022/05/27 15:09:07;;;;;;;11.95;10.68;;;;;;;;;;4819697;29;20419;-73
2022/05/27 15:11:38;;;;;;;12.05;10.75;;;;;;;;;;4820239;29;20388;-73
2022/05/27 15:14:21;;;;;;;13.23;10.98;;;;;;;;;;4819878;29;20080;-73
2022/05/27 15:17:01;;;;;;;12.50;11.07;;;;;;;;;;4819734;29;20058;-73
2022/05/27 15:20:09;;;;;;;14.05;12.57;;;;;;;;;;4819686;29;20416;-74
2022/05/27 15:22:57;;;;;;;14.15;11.85;;;;;;;;;;4819671;29;20055;-74
2022/05/27 15:25:38;;;;;;;13.35;11.35;;;;;;;;;;4818866;29;20054;-73
2022/05/27 15:34:00;;;;;;;14.93;12.05;;;;;;;;;;4819481;29;20062;-73
2022/05/27 15:36:30;;;;;;;19.63;14.73;;;;;;;;;;4819487;29;20050;-73
2022/05/27 15:39:01;;;;;;;18.33;13.75;;;;;;;;;;4820102;29;20054;-73
2022/05/27 15:41:32;;;;;;;16.35;14.10;;;;;;;;;;4819457;29;20054;-73
2022/05/27 15:44:01;;;;;;;18.88;14.00;;;;;;;;;;4819499;29;20050;-73
2022/05/27 15:46:32;;;;;;;15.88;13.18;;;;;;;;;;4819610;29;20061;-73
2022/05/27 15:49:02;;;;;;;15.85;12.90;;;;;;;;;;4819089;29;20054;-73
2022/05/27 15:51:32;;;;;;;16.00;14.40;;;;;;;;;;4819133;29;20061;-74
2022/05/27 15:54:03;;;;;;;;;;;;;;;;;;4819727;29;20054;-73
2022/05/27 15:56:33;;;;;;;17.20;13.40;;;;;;;;;;4818838;29;20400;-75
2022/05/27 15:59:03;;;;;;;16.10;13.57;;;;;;;;;;4802019;29;20062;-73
2022/05/27 16:01:33;;;;;;;17.23;15.43;;;;;;;;;;4818868;29;20530;-75
2022/05/27 16:04:03;;;;;;;19.52;15.82;;;;;;;;;;4818887;29;20054;-74
2022/05/27 16:06:35;;;;;;;23.17;16.90;;;;;;;;;;4819265;29;20062;-74